Latest Weather Observations for PORTABLE QFRI (Inglewood)

IDQ60801

Issued at 1:42 am EST Wednesday 19 February 2020 (issued every 10 minutes, with the page automatically refreshed every 10 minutes)

About weather observations | Map of weather stations | Latest weather observations for QLD | Other Formats
Station Details ID: 250073 Name: PORTABLE QFRI (INGLEWOOD) Lat: -28.42 Lon: 151.10 Height: 286.0 m

Portable automatic weather stations (PAWS) are operated by other organisations, such as Fire and Emergency Services, and are included here by agreement. Portable stations may be deployed to a location for a short period and their location may be subject to change without notice. Wind observations from these stations are provided from heights of either three (3) or ten (10) metres above ground level (AGL).

Data from the previous 72 hours. | See also: Recent months for locations in Queensland
Date/Time
EST
Temp
°C
App
Temp
°C
Dew
Point
°C
Rel
Hum
%
Delta-T
°C
Wind Press
QNH
hPa
Press
MSL
hPa
Rain since
9am
mm
Dir  Spd
km/h
Gust
km/h
Spd
kts
Gust
kts
19/01:30am 25.8 26.7 20.1 71 3.7 NNE 15 19 8 10 - - 0.0
19/01:20am 25.9 26.7 19.9 69 3.9 NNE 15 19 8 10 - - 0.0
19/01:10am 26.0 27.2 20.0 69 3.9 NNE 13 15 7 8 - - 0.0
19/01:00am 26.2 27.4 19.9 68 4.1 NNE 13 15 7 8 - - 0.0
19/12:50am 26.3 27.4 19.6 66 4.4 NNE 13 15 7 8 - - 0.0
19/12:40am 26.4 27.5 19.6 66 4.4 NNE 13 19 7 10 - - 0.0
19/12:30am 26.6 27.7 19.6 65 4.6 NNE 13 15 7 8 - - 0.0
19/12:20am 26.8 28.5 19.4 64 4.8 NE 9 13 5 7 - - 0.0
19/12:10am 27.0 28.6 19.2 62 5.1 NNE 9 13 5 7 - - 0.0
19/12:00am 27.2 28.4 19.1 61 5.3 NE 11 17 6 9 - - 0.0
 
Date/Time
EST
Temp
°C
App
Temp
°C
Dew
Point
°C
Rel
Hum
%
Delta-T
°C
Wind Press
QNH
hPa
Press
MSL
hPa
Rain since
9am
mm
Dir  Spd
km/h
Gust
km/h
Spd
kts
Gust
kts
18/11:50pm 27.3 28.0 18.9 60 5.5 NNE 13 19 7 10 - - 0.0
18/11:40pm 27.4 27.8 18.9 59 5.5 NNE 15 22 8 12 - - 0.0
18/11:30pm 27.4 27.0 18.8 59 5.6 NNE 19 22 10 12 - - 0.0
18/11:20pm 27.5 27.4 18.7 58 5.7 NNE 17 17 9 9 - - 0.0
18/11:10pm 27.6 27.6 18.2 56 6.0 NNE 15 17 8 9 - - 0.0
18/11:00pm 27.5 28.3 18.1 56 6.0 NNE 11 15 6 8 - - 0.0
18/10:50pm 27.6 28.4 18.1 56 6.1 NNE 11 13 6 7 - - 0.0
18/10:40pm 27.6 28.2 17.8 55 6.3 NNE 11 13 6 7 - - 0.0
18/10:30pm 27.7 28.3 17.8 54 6.3 N 11 13 6 7 - - 0.0
18/10:20pm 27.7 28.3 17.8 54 6.3 N 11 15 6 8 - - 0.0
18/10:10pm 27.9 28.6 17.9 54 6.4 NNE 11 15 6 8 - - 0.0
18/10:00pm 28.0 28.2 17.6 53 6.6 NNE 13 15 7 8 - - 0.0
18/09:50pm 28.2 29.2 17.7 53 6.7 NE 9 9 5 5 - - 0.0
18/09:40pm 28.3 29.3 17.7 52 6.8 NNE 9 11 5 6 - - 0.0
18/09:30pm 28.5 29.4 17.6 51 7.0 NNE 9 11 5 6 - - 0.0
18/09:20pm 28.6 29.0 17.3 50 7.2 NNE 11 11 6 6 - - 0.0
18/09:10pm 28.7 29.1 17.3 50 7.3 NNE 11 17 6 9 - - 0.0
18/09:00pm 28.9 28.5 17.2 49 7.4 NNE 15 17 8 9 - - 0.0
18/08:50pm 29.0 28.6 17.1 48 7.6 NNE 15 19 8 10 - - 0.0
18/08:40pm 29.0 28.6 17.2 49 7.5 NNE 15 17 8 9 - - 0.0
18/08:30pm 29.0 29.0 17.3 49 7.5 NNE 13 15 7 8 - - 0.0
18/08:20pm 28.8 29.1 17.9 51 7.0 NNE 13 13 7 7 - - 0.0
18/08:10pm 28.7 29.9 18.2 53 6.8 NNE 9 11 5 6 - - 0.0
18/08:00pm 28.8 30.4 18.3 53 6.8 NNE 7 9 4 5 - - 0.0
18/07:50pm 28.9 30.6 18.1 52 7.0 NNE 6 7 3 4 - - 0.0
18/07:40pm 29.2 30.7 17.7 50 7.4 NNE 6 6 3 3 - - 0.0
18/07:30pm 29.3 31.4 18.2 51 7.2 N 4 6 2 3 - - 0.0
18/07:20pm 29.4 31.3 17.7 49 7.5 NNW 4 6 2 3 - - 0.0
18/07:00pm 29.6 30.8 16.8 46 8.1 N 6 7 3 4 - - 0.0
18/06:50pm 29.7 31.3 18.3 50 7.4 N 7 7 4 4 - - 0.0
18/06:40pm 29.9 31.6 18.0 48 7.7 N 6 7 3 4 - - 0.0
18/06:30pm 30.2 31.9 18.4 49 7.7 N 7 7 4 4 - - 0.0
18/06:20pm 30.6 32.5 17.6 45 8.4 N 4 6 2 3 - - 0.0
18/06:10pm 30.8 32.3 17.6 45 8.5 N 6 6 3 3 - - 0.0
18/06:00pm 31.2 33.0 18.4 46 8.4 N 6 6 3 3 - - 0.0
18/05:50pm 31.4 33.3 18.5 46 8.4 N 6 7 3 4 - - 0.0
18/05:40pm 31.8 33.7 17.7 43 9.1 NE 4 6 2 3 - - 0.0
18/05:30pm 32.1 34.4 18.5 44 8.9 NNE 4 7 2 4 - - 0.0
18/05:20pm 32.2 34.0 17.3 41 9.6 NE 4 7 2 4 - - 0.0
18/05:10pm 32.3 33.7 17.3 40 9.7 ENE 6 7 3 4 - - 0.0
18/05:00pm 32.4 34.3 17.7 41 9.5 NE 4 4 2 2 - - 0.0
18/04:50pm 32.9 34.2 17.1 39 10.2 NE 6 6 3 3 - - 0.0
18/04:40pm 33.4 34.8 17.3 38 10.4 NE 6 6 3 3 - - 0.0
18/04:30pm 32.9 33.9 16.9 38 10.3 ENE 7 9 4 5 - - 0.0
18/04:20pm 33.0 34.1 17.2 39 10.2 ENE 7 11 4 6 - - 0.0
18/04:00pm 32.5 34.0 17.5 40 9.7 NE 6 7 3 4 - - 0.0
18/03:50pm 32.8 34.1 17.5 40 9.9 ENE 7 9 4 5 - - 0.0
18/03:40pm 33.4 34.3 16.5 36 10.8 ENE 7 11 4 6 - - 0.0
18/03:30pm 33.0 33.9 16.0 36 10.8 ENE 6 9 3 5 - - 0.0
18/03:20pm 32.5 33.9 17.4 40 9.8 NE 6 6 3 3 - - 0.0
18/03:10pm 32.9 34.1 16.8 38 10.3 NE 6 9 3 5 - - 0.0
18/03:00pm 33.5 34.8 17.5 38 10.4 NE 7 13 4 7 - - 0.0
18/02:50pm 33.9 35.2 17.5 37 10.7 NNE 7 11 4 6 - - 0.0
18/02:40pm 33.9 34.5 16.8 36 11.0 NE 9 13 5 7 - - 0.0
18/02:30pm 34.0 34.9 16.0 34 11.5 NE 6 7 3 4 - - 0.0
18/02:20pm 33.7 34.5 16.3 35 11.1 NE 7 9 4 5 - - 0.0
18/02:10pm 33.8 34.4 16.9 36 10.9 NNE 9 11 5 6 - - 0.0
18/02:00pm 33.7 35.7 19.1 42 9.7 NNE 7 11 4 6 - - 0.0
18/01:50pm 33.4 34.0 16.8 37 10.7 NNE 9 15 5 8 - - 0.0
18/01:40pm 32.9 33.7 17.3 39 10.1 ENE 9 13 5 7 - - 0.0
18/01:30pm 32.9 33.9 18.6 42 9.4 ENE 11 15 6 8 - - 0.0
18/01:20pm 32.9 33.5 16.8 38 10.3 NNE 9 11 5 6 - - 0.0
18/01:10pm 33.0 34.1 18.0 41 9.8 N 9 13 5 7 - - 0.0
18/01:00pm 32.9 34.0 18.1 41 9.7 N 9 13 5 7 - - 0.0
18/12:50pm 32.5 33.1 16.8 39 10.1 NNE 9 13 5 7 - - 0.0
18/12:40pm 32.1 32.3 16.7 39 9.8 NNE 11 15 6 8 - - 0.0
18/12:30pm 32.1 33.5 18.7 45 8.8 NNE 9 11 5 6 - - 0.0
18/12:20pm 31.9 32.5 17.6 42 9.2 NNE 11 17 6 9 - - 0.0
18/12:10pm 31.7 32.8 18.1 44 8.8 NNE 9 15 5 8 - - 0.0
18/12:00pm 31.6 32.6 17.7 43 9.0 N 9 11 5 6 - - 0.0
18/11:50am 31.4 32.2 18.1 45 8.6 NNE 11 13 6 7 - - 0.0
18/11:40am 31.2 31.8 17.8 44 8.7 NE 11 13 6 7 - - 0.0
18/11:30am 30.8 31.5 17.1 43 8.8 NE 9 13 5 7 - - 0.0
18/11:20am 30.8 30.7 17.0 43 8.8 NNE 13 17 7 9 - - 0.0
18/11:10am 30.8 31.7 17.5 45 8.6 NNE 9 13 5 7 - - 0.0
18/11:00am 30.5 30.9 17.3 45 8.5 NE 11 15 6 8 - - 0.0
18/10:50am 30.1 31.0 18.4 49 7.6 NNE 11 15 6 8 - - 0.0
18/10:40am 29.8 30.9 18.1 49 7.6 NE 9 11 5 6 - - 0.0
18/10:30am 29.6 31.5 19.7 55 6.5 NNE 9 13 5 7 - - 0.0
18/10:20am 29.6 30.8 18.3 50 7.3 NNE 9 11 5 6 - - 0.0
18/10:10am 29.0 29.8 18.2 52 7.0 NNE 11 13 6 7 - - 0.0
18/10:00am 28.6 29.8 18.3 53 6.7 NE 9 13 5 7 - - 0.0
18/09:50am 28.5 30.0 19.0 56 6.2 NE 9 13 5 7 - - 0.0
18/09:40am 28.2 29.9 19.4 59 5.8 NNE 9 13 5 7 - - 0.0
18/09:30am 27.7 28.9 19.1 59 5.6 NE 11 13 6 7 - - 0.0
18/09:20am 27.7 29.0 18.5 57 5.9 NNE 9 11 5 6 - - 0.0
18/09:10am 27.3 28.9 19.2 61 5.3 NE 9 11 5 6 - - 0.0
18/09:00am 27.1 28.6 19.0 61 5.3 NNE 9 13 5 7 - - 6.2
18/08:50am 26.9 28.9 19.2 62 5.0 NNE 7 9 4 5 - - 6.2
18/08:40am 26.3 28.5 19.5 66 4.4 NNE 7 11 4 6 - - 6.2
18/08:30am 25.9 28.0 19.4 67 4.2 NE 7 9 4 5 - - 6.2
18/08:20am 25.4 26.8 18.7 66 4.3 NE 9 11 5 6 - - 6.2
18/08:10am 25.1 26.8 19.3 70 3.8 NE 9 11 5 6 - - 6.2
18/08:00am 24.5 26.1 19.1 72 3.5 NE 9 13 5 7 - - 6.2
18/07:50am 24.3 26.0 19.3 73 3.2 NE 9 11 5 6 - - 6.2
18/07:40am 24.3 26.3 19.1 73 3.4 NE 7 13 4 7 - - 6.2
18/07:30am 24.0 26.0 19.2 74 3.1 NE 7 9 4 5 - - 6.2
18/07:20am 23.6 25.7 19.3 77 2.8 NE 7 9 4 5 - - 6.2
18/07:10am 23.1 24.6 19.0 78 2.6 ENE 9 11 5 6 - - 6.2
18/07:00am 22.9 24.5 19.2 79 2.4 ENE 9 11 5 6 - - 6.2
18/06:50am 22.6 24.4 18.7 78 2.5 ENE 7 13 4 7 - - 6.2
18/06:40am 22.2 24.7 19.1 82 2.0 ENE 4 4 2 2 - - 6.2
18/06:30am 21.6 24.1 19.1 86 1.6 E 4 4 2 2 - - 6.2
18/06:20am 21.2 23.4 19.1 88 1.3 E 6 6 3 3 - - 6.2
18/06:10am 20.9 23.0 19.0 89 1.2 E 6 6 3 3 - - 6.2
18/06:00am 20.6 23.4 18.9 90 1.1 E 2 4 1 2 - - 6.2
18/05:50am 20.5 23.6 18.7 89 1.1 CALM 0 4 0 2 - - 6.2
18/05:40am 20.6 23.7 18.7 89 1.2 CALM 0 0 0 0 - - 6.2
18/05:30am 20.6 23.3 18.7 89 1.2 NW 2 4 1 2 - - 6.2
18/05:20am 20.5 23.2 18.6 89 1.2 N 2 4 1 2 - - 6.2
18/05:10am 20.4 22.7 18.5 89 1.2 ENE 4 6 2 3 - - 6.2
18/05:00am 20.3 22.0 18.5 89 1.1 E 7 7 4 4 - - 6.2
18/04:50am 20.3 22.0 18.5 89 1.1 E 7 7 4 4 - - 6.2
18/04:40am 20.4 22.1 18.6 89 1.1 E 7 7 4 4 - - 6.2
18/04:30am 20.4 22.3 18.5 89 1.2 E 6 7 3 4 - - 6.2
18/04:20am 20.5 22.4 18.5 88 1.3 E 6 7 3 4 - - 6.2
18/04:10am 20.6 22.3 18.5 88 1.3 E 7 9 4 5 - - 6.2
18/04:00am 20.6 22.5 18.5 88 1.3 ESE 6 7 3 4 - - 6.2
18/03:50am 20.7 22.6 18.5 87 1.4 E 6 9 3 5 - - 6.2
18/03:40am 20.8 22.5 18.4 86 1.5 E 7 9 4 5 - - 6.2
18/03:30am 21.0 22.9 18.5 85 1.6 ESE 6 7 3 4 - - 6.2
18/03:20am 21.1 23.7 18.4 84 1.7 E 2 4 1 2 - - 6.2
18/03:10am 21.1 23.2 18.2 83 1.8 NE 4 6 2 3 - - 6.2
18/03:00am 21.1 22.9 18.2 83 1.8 ENE 6 9 3 5 - - 6.2
18/02:50am 21.0 21.9 18.4 85 1.6 ENE 11 13 6 7 - - 6.2
18/02:40am 21.0 21.9 18.3 84 1.7 E 11 13 6 7 - - 6.2
18/02:30am 21.0 22.8 18.4 85 1.6 SE 6 9 3 5 - - 6.2
18/02:20am 21.0 22.8 18.2 84 1.8 N 6 9 3 5 - - 6.2
18/02:10am 20.9 22.6 18.1 84 1.8 SSW 6 7 3 4 - - 6.2
18/02:00am 20.8 20.8 18.2 85 1.6 ENE 15 24 8 13 - - 6.2
18/01:50am 20.6 19.3 18.1 85 1.6 ENE 22 26 12 14 - - 6.2
18/01:40am 20.5 20.1 18.1 86 1.5 NE 17 19 9 10 - - 6.2
18/01:30am 20.5 21.3 18.2 87 1.4 NE 11 15 6 8 - - 6.2
18/01:20am 20.5 21.4 18.3 87 1.4 ENE 11 15 6 8 - - 6.2
18/01:10am 20.4 21.6 18.3 88 1.3 ENE 9 13 5 7 - - 6.2
18/01:00am 20.3 21.9 18.3 88 1.3 NE 7 9 4 5 - - 6.0
18/12:50am 20.3 21.9 18.2 88 1.3 NNE 7 9 4 5 - - 5.8
18/12:40am 20.4 21.6 18.2 87 1.4 NE 9 11 5 6 - - 5.4
18/12:30am 20.6 22.2 18.3 87 1.4 NE 7 9 4 5 - - 4.8
18/12:20am 21.0 23.1 18.1 83 1.8 N 4 7 2 4 - - 3.4
18/12:10am 21.5 24.2 18.6 83 1.8 W 2 6 1 3 - - 2.4
18/12:00am 21.7 23.5 18.2 80 2.2 SSW 6 9 3 5 - - 1.6
 
Date/Time
EST
Temp
°C
App
Temp
°C
Dew
Point
°C
Rel
Hum
%
Delta-T
°C
Wind Press
QNH
hPa
Press
MSL
hPa
Rain since
9am
mm
Dir  Spd
km/h
Gust
km/h
Spd
kts
Gust
kts
17/11:50pm 22.2 23.0 18.2 78 2.5 SSW 11 13 6 7 - - 0.8
17/11:40pm 23.0 23.2 17.7 72 3.3 S 13 17 7 9 - - 0.2
17/11:30pm 23.7 22.1 16.6 64 4.4 S 20 22 11 12 - - 0.0
17/11:20pm 24.1 22.0 16.2 61 4.9 S 22 24 12 13 - - 0.0
17/11:10pm 24.6 22.7 15.8 58 5.4 S 20 24 11 13 - - 0.0
17/11:00pm 25.0 23.1 15.8 56 5.7 S 20 26 11 14 - - 0.0
17/10:50pm 25.1 23.7 15.5 55 5.9 ESE 17 22 9 12 - - 0.0
17/10:40pm 25.3 22.6 15.6 55 6.0 E 24 26 13 14 - - 0.0
17/10:30pm 25.6 23.0 15.9 55 6.0 E 24 28 13 15 - - 0.0
17/10:20pm 26.0 23.0 15.8 53 6.3 E 26 28 14 15 - - 0.0
17/10:10pm 26.1 23.6 16.2 54 6.1 E 24 30 13 16 - - 0.0
17/10:00pm 26.2 24.7 16.7 56 5.9 E 20 24 11 13 - - 0.0
17/09:50pm 26.5 23.8 16.7 55 6.1 E 26 30 14 16 - - 0.0
17/09:40pm 26.7 25.0 17.2 56 6.0 E 22 28 12 15 - - 0.0
17/09:30pm 27.2 25.7 18.5 59 5.6 E 24 28 13 15 - - 0.0
17/09:20pm 27.6 25.2 18.3 57 6.0 E 28 33 15 18 - - 0.0
17/09:10pm 28.0 25.6 17.4 52 6.7 E 26 28 14 15 - - 0.0
17/09:00pm 28.1 26.1 17.3 52 6.9 E 24 28 13 15 - - 0.0
17/08:50pm 28.2 27.4 18.1 54 6.5 E 19 20 10 11 - - 0.0
17/08:40pm 28.5 27.4 17.7 52 6.9 E 20 22 11 12 - - 0.0
17/08:30pm 28.3 27.4 18.1 54 6.6 E 20 22 11 12 - - 0.0
17/08:20pm 29.1 29.4 17.9 50 7.2 ENE 13 20 7 11 - - 0.0
17/08:10pm 29.4 29.7 16.0 44 8.4 ENE 9 11 5 6 - - 0.0
17/08:00pm 29.2 29.3 16.4 46 8.1 ENE 11 13 6 7 - - 0.0
17/07:50pm 28.9 29.3 16.2 46 8.0 ENE 9 11 5 6 - - 0.0
17/07:40pm 29.4 30.9 17.5 48 7.6 ENE 6 7 3 4 - - 0.0
17/07:30pm 29.6 31.0 16.4 45 8.3 NE 4 6 2 3 - - 0.0
17/07:20pm 29.8 30.7 16.1 43 8.6 NE 6 6 3 3 - - 0.0
17/07:10pm 30.1 30.7 15.8 42 9.0 NE 7 7 4 4 - - 0.0
17/07:00pm 30.2 30.8 15.7 41 9.1 NE 7 7 4 4 - - 0.0
17/06:50pm 30.3 30.4 15.6 41 9.2 NNE 9 11 5 6 - - 0.0
17/06:40pm 30.3 30.4 15.5 40 9.2 NNE 9 11 5 6 - - 0.0
17/06:30pm 30.7 31.3 15.7 40 9.4 NE 7 11 4 6 - - 0.0
17/06:20pm 31.1 31.2 15.5 39 9.8 NNE 9 13 5 7 - - 0.0
17/06:10pm 31.6 31.7 15.6 38 10.0 NE 9 11 5 6 - - 0.0
17/06:00pm 32.0 32.2 15.8 37 10.2 NE 9 11 5 6 - - 0.0
17/05:50pm 32.4 32.5 15.5 36 10.6 NNE 9 13 5 7 - - 0.0
17/05:40pm 32.6 33.0 16.3 37 10.4 NNE 9 11 5 6 - - 0.0
17/05:30pm 32.9 33.2 14.9 33 11.2 NE 7 9 4 5 - - 0.0
17/05:20pm 33.2 33.0 14.8 33 11.5 NNE 9 13 5 7 - - 0.0
17/05:10pm 33.3 32.7 14.5 32 11.7 NNE 11 19 6 10 - - 0.0
17/05:00pm 33.4 33.0 15.2 33 11.4 N 11 15 6 8 - - 0.0
17/04:50pm 33.4 32.1 14.9 32 11.6 N 15 17 8 9 - - 0.0
17/04:40pm 33.6 32.9 15.3 33 11.5 NNE 13 15 7 8 - - 0.0
17/04:30pm 33.7 33.4 15.5 33 11.5 N 11 17 6 9 - - 0.0
17/04:20pm 33.7 33.1 14.7 32 11.9 NNE 11 15 6 8 - - 0.0
17/04:10pm 33.9 33.3 15.6 33 11.6 NNE 13 19 7 10 - - 0.0
17/04:00pm 33.9 33.8 16.0 34 11.4 N 11 17 6 9 - - 0.0
17/03:50pm 33.8 32.9 15.9 34 11.4 NNE 15 20 8 11 - - 0.0
17/03:40pm 34.0 33.6 16.2 34 11.4 NNE 13 22 7 12 - - 0.0
17/03:30pm 34.0 33.1 15.8 33 11.5 N 15 20 8 11 - - 0.0
17/03:20pm 34.2 34.2 16.2 34 11.5 N 11 17 6 9 - - 0.0
17/03:10pm 34.0 34.3 16.0 34 11.5 NE 9 13 5 7 - - 0.0
17/03:00pm 34.0 34.0 16.3 34 11.3 N 11 15 6 8 - - 0.0
17/02:50pm 34.0 34.1 16.4 35 11.3 NNE 11 17 6 9 - - 0.0
17/02:40pm 33.9 33.8 16.9 36 10.9 N 13 15 7 8 - - 0.0
17/02:30pm 34.0 34.1 16.5 35 11.2 N 11 15 6 8 - - 0.0
17/02:20pm 33.9 34.4 16.6 35 11.1 N 9 17 5 9 - - 0.0
17/02:10pm 33.7 34.0 16.9 36 10.8 NNE 11 15 6 8 - - 0.0
17/02:00pm 33.8 34.4 17.7 38 10.5 NNE 11 15 6 8 - - 0.0
17/01:50pm 33.5 34.1 16.9 37 10.7 N 9 13 5 7 - - 0.0
17/01:40pm 33.3 33.1 16.8 37 10.6 NNE 13 17 7 9 - - 0.0
17/01:30pm 33.3 34.7 17.7 39 10.1 N 7 13 4 7 - - 0.0
17/01:20pm 33.1 33.9 17.4 39 10.2 NE 9 15 5 8 - - 0.0
17/01:10pm 33.2 34.3 18.8 42 9.5 NNE 11 15 6 8 - - 0.0
17/01:00pm 33.1 34.6 19.0 43 9.3 NNE 9 13 5 7 - - 0.0
17/12:50pm 32.8 34.3 18.9 43 9.2 NNE 9 15 5 8 - - 0.0
17/12:40pm 32.7 33.8 18.8 43 9.2 N 11 15 6 8 - - 0.0
17/12:30pm 32.6 34.6 18.7 43 9.1 NNE 6 13 3 7 - - 0.0
17/12:20pm 32.4 33.9 18.9 44 8.9 NNE 9 15 5 8 - - 0.0
17/12:10pm 31.9 33.5 19.2 47 8.4 ENE 9 13 5 7 - - 0.0
17/12:00pm 31.7 33.2 18.9 46 8.4 NE 9 17 5 9 - - 0.0
17/11:50am 32.1 33.8 19.4 47 8.4 NNE 9 13 5 7 - - 0.0
17/11:40am 31.6 33.9 19.8 49 7.9 NNE 7 11 4 6 - - 0.0
17/11:30am 31.2 32.6 18.6 47 8.2 NE 9 11 5 6 - - 0.0
17/11:20am 31.1 32.1 18.7 47 8.1 NE 11 15 6 8 - - 0.0
17/11:10am 31.1 31.8 18.0 45 8.5 NE 11 15 6 8 - - 0.0
17/11:00am 31.0 31.9 18.5 47 8.2 NE 11 15 6 8 - - 0.0
17/10:50am 30.6 32.1 19.7 52 7.2 NNE 11 15 6 8 - - 0.0
17/10:40am 30.3 31.5 19.0 50 7.4 NE 11 15 6 8 - - 0.0
17/10:30am 30.2 31.8 19.2 51 7.2 NE 9 15 5 8 - - 0.0
17/10:20am 29.9 31.7 19.6 54 6.8 NE 9 17 5 9 - - 0.0
17/10:10am 29.8 30.8 18.7 51 7.2 NNE 11 15 6 8 - - 0.0
17/10:00am 29.6 30.8 19.8 55 6.5 N 13 17 7 9 - - 0.0
17/09:50am 29.4 30.6 20.0 57 6.2 N 13 17 7 9 - - 0.0
17/09:40am 29.0 30.1 19.6 57 6.2 N 13 19 7 10 - - 0.0
17/09:30am 28.9 30.4 19.8 58 6.0 NNE 11 15 6 8 - - 0.0
17/09:20am 28.5 29.7 19.9 59 5.7 NE 13 15 7 8 - - 0.0
17/09:10am 28.4 30.2 19.6 59 5.8 NE 9 17 5 9 - - 0.0
17/09:00am 28.1 29.8 20.2 62 5.2 NNE 11 13 6 7 - - 0.0
17/08:50am 27.6 29.6 19.9 63 5.1 NNE 9 13 5 7 - - 0.0
17/08:40am 27.4 29.5 20.2 65 4.8 NNE 9 13 5 7 - - 0.0
17/08:30am 27.0 29.1 20.2 66 4.5 NNE 9 13 5 7 - - 0.0
17/08:20am 26.6 29.0 20.1 67 4.3 NNE 7 9 4 5 - - 0.0
17/08:10am 25.9 28.2 19.9 69 3.9 NE 7 9 4 5 - - 0.0
17/08:00am 25.7 27.9 20.3 72 3.6 NNE 9 15 5 8 - - 0.0
17/07:50am 25.5 27.5 20.0 71 3.6 NE 9 11 5 6 - - 0.0
17/07:40am 25.5 27.6 20.1 72 3.5 NNE 9 11 5 6 - - 0.0
17/07:30am 25.3 27.3 19.9 72 3.5 NE 9 11 5 6 - - 0.0
17/07:20am 25.1 27.0 19.8 72 3.5 NE 9 9 5 5 - - 0.0
17/07:10am 24.8 27.3 20.2 75 3.0 NE 7 11 4 6 - - 0.0
17/07:00am 24.5 26.8 19.8 75 3.1 NE 7 11 4 6 - - 0.0
17/06:50am 24.3 26.6 19.9 76 2.9 NE 7 9 4 5 - - 0.0
17/06:40am 23.8 26.1 19.9 79 2.5 NNE 7 9 4 5 - - 0.0
17/06:30am 23.4 25.7 19.9 81 2.3 NNE 7 9 4 5 - - 0.0
17/06:20am 23.0 24.9 19.8 82 2.1 NNE 9 9 5 5 - - 0.0
17/06:10am 22.7 24.6 19.7 83 1.9 NNE 9 9 5 5 - - 0.0
17/06:00am 22.5 24.7 19.7 84 1.8 NNE 7 9 4 5 - - 0.0
17/05:50am 22.3 24.5 19.6 85 1.7 NNE 7 7 4 4 - - 0.0
17/05:40am 22.2 24.4 19.6 85 1.7 NNE 7 9 4 5 - - 0.0
17/05:30am 22.2 24.4 19.7 86 1.6 N 7 9 4 5 - - 0.0
17/05:20am 22.3 24.7 19.6 85 1.7 N 6 7 3 4 - - 0.0
17/05:10am 22.4 24.7 19.8 85 1.7 N 7 9 4 5 - - 0.0
17/05:00am 22.5 24.4 19.8 85 1.8 NNE 9 11 5 6 - - 0.0
17/04:50am 22.6 24.5 19.8 84 1.8 NNE 9 11 5 6 - - 0.0
17/04:40am 22.7 24.6 19.8 84 1.9 NNE 9 11 5 6 - - 0.0
17/04:30am 22.6 24.9 19.8 84 1.8 NNE 7 9 4 5 - - 0.0
17/04:20am 22.7 25.2 19.9 84 1.8 NNE 6 7 3 4 - - 0.0
17/04:10am 22.8 25.3 19.9 84 1.9 NNE 6 7 3 4 - - 0.0
17/04:00am 22.9 25.8 19.9 83 2.0 NNE 4 6 2 3 - - 0.0
17/03:50am 23.0 25.9 19.9 83 2.0 NE 4 4 2 2 - - 0.0
17/03:40am 23.2 26.1 19.9 82 2.1 NE 4 6 2 3 - - 0.0
17/03:30am 23.3 25.8 19.9 81 2.2 NE 6 6 3 3 - - 0.0
17/03:20am 23.4 25.9 19.8 80 2.3 NE 6 6 3 3 - - 0.0
17/03:10am 23.5 26.0 19.8 80 2.4 NE 6 7 3 4 - - 0.0
17/03:00am 23.4 25.8 19.7 80 2.4 ENE 6 7 3 4 - - 0.0
17/02:50am 23.2 25.4 19.6 80 2.3 ENE 7 7 4 4 - - 0.0
17/02:40am 22.8 24.6 19.6 82 2.1 ENE 9 11 5 6 - - 0.0
17/02:30am 22.9 25.1 19.6 81 2.1 ENE 7 9 4 5 - - 0.0
17/02:20am 22.9 25.1 19.5 81 2.2 E 7 9 4 5 - - 0.0
17/02:10am 23.2 25.4 19.6 80 2.3 ENE 7 7 4 4 - - 0.0
17/02:00am 23.5 26.1 19.3 77 2.7 NE 4 6 2 3 - - 0.0
17/01:50am 23.6 25.8 19.2 76 2.8 NE 6 6 3 3 - - 0.0
17/01:40am 23.6 25.8 19.1 76 2.9 ENE 6 7 3 4 - - 0.0
17/01:30am 23.6 25.5 18.9 75 3.0 NE 7 9 4 5 - - 0.0
17/01:20am 23.5 25.6 18.9 75 3.0 NE 6 6 3 3 - - 0.0
17/01:10am 23.8 25.7 18.9 74 3.1 ENE 7 7 4 4 - - 0.0
17/01:00am 23.8 25.3 18.8 73 3.2 ENE 9 13 5 7 - - 0.0
17/12:50am 23.8 25.3 19.0 74 3.1 ENE 9 11 5 6 - - 0.0
17/12:40am 24.0 25.5 18.8 72 3.3 ENE 9 11 5 6 - - 0.0
17/12:30am 24.0 25.7 18.5 71 3.5 NE 7 9 4 5 - - 0.0
17/12:20am 23.8 25.7 18.6 72 3.3 NE 6 7 3 4 - - 0.0
17/12:10am 23.7 25.5 18.3 71 3.4 NE 6 7 3 4 - - 0.0
17/12:00am 23.7 25.7 18.7 73 3.2 NE 6 9 3 5 - - 0.0
 
Date/Time
EST
Temp
°C
App
Temp
°C
Dew
Point
°C
Rel
Hum
%
Delta-T
°C
Wind Press
QNH
hPa
Press
MSL
hPa
Rain since
9am
mm
Dir  Spd
km/h
Gust
km/h
Spd
kts
Gust
kts
16/11:50pm 23.7 25.4 18.6 73 3.3 NE 7 9 4 5 - - 0.0
16/11:40pm 23.7 25.0 18.4 72 3.4 NE 9 11 5 6 - - 0.0
16/11:30pm 23.5 24.4 18.3 72 3.3 ENE 11 13 6 7 - - 0.0
16/11:20pm 23.3 23.1 18.5 74 3.1 E 17 20 9 11 - - 0.0
16/11:10pm 23.4 22.3 18.6 74 3.1 E 22 24 12 13 - - 0.0
16/11:00pm 23.7 23.0 18.3 71 3.4 ESE 19 24 10 13 - - 0.0
16/10:50pm 24.2 23.6 18.4 70 3.7 ESE 19 22 10 12 - - 0.0
16/10:40pm 24.6 24.1 18.6 69 3.8 ESE 19 24 10 13 - - 0.0
16/10:30pm 25.6 25.2 18.8 66 4.4 SE 19 22 10 12 - - 0.0
16/10:20pm 26.5 26.0 19.1 64 4.8 E 20 24 11 13 - - 0.0
16/10:10pm 26.9 27.3 19.8 65 4.7 E 17 20 9 11 - - 0.0
16/10:00pm 27.1 27.6 19.2 62 5.1 ENE 15 20 8 11 - - 0.0
16/09:50pm 27.3 27.7 19.1 61 5.3 ENE 15 19 8 10 - - 0.0
16/09:40pm 27.5 28.0 19.2 60 5.4 NE 15 19 8 10 - - 0.0
16/09:30pm 27.6 28.4 19.0 59 5.6 NE 13 17 7 9 - - 0.0
16/09:20pm 27.7 28.1 18.9 58 5.7 NE 15 17 8 9 - - 0.0
16/09:10pm 27.9 28.3 19.1 58 5.7 NE 15 19 8 10 - - 0.0
16/09:00pm 28.2 28.6 18.9 57 6.1 NE 15 20 8 11 - - 0.0
16/08:50pm 28.6 28.0 18.8 55 6.4 NE 20 24 11 13 - - 0.0
16/08:40pm 28.7 27.7 18.9 55 6.4 ENE 22 26 12 14 - - 0.0
16/08:30pm 28.8 27.8 18.9 55 6.5 ENE 22 28 12 15 - - 0.0
16/08:20pm 29.1 28.9 18.6 53 6.8 ENE 17 19 9 10 - - 0.0
16/08:10pm 29.2 29.8 17.8 50 7.3 NE 11 13 6 7 - - 0.0
16/08:00pm 29.1 30.6 18.1 51 7.1 NE 7 9 4 5 - - 0.0
16/07:50pm 29.4 30.5 18.0 50 7.4 ENE 9 11 5 6 - - 0.0
16/07:40pm 29.6 30.7 17.9 49 7.5 ENE 9 11 5 6 - - 0.0
16/07:30pm 29.6 30.9 18.4 51 7.3 ENE 9 13 5 7 - - 0.0
16/07:20pm 29.7 31.4 18.4 50 7.3 NE 7 11 4 6 - - 0.0
16/07:00pm 30.2 31.2 18.6 49 7.6 ENE 11 13 6 7 - - 0.0
16/06:50pm 30.2 31.3 18.8 50 7.5 NE 11 13 6 7 - - 0.0
16/06:40pm 30.5 31.1 18.6 49 7.8 ENE 13 15 7 8 - - 0.0
16/06:30pm 30.8 30.9 18.4 47 8.1 ENE 15 20 8 11 - - 0.0
16/06:20pm 31.3 30.9 19.0 48 8.1 ENE 19 24 10 13 - - 0.0
16/06:10pm 32.4 33.3 18.3 43 9.2 NE 11 15 6 8 - - 0.0
16/06:00pm 32.5 32.8 17.8 41 9.5 NE 13 15 7 8 - - 0.0
16/05:50pm 32.4 31.9 17.9 42 9.4 ENE 17 20 9 11 - - 0.0
16/05:40pm 32.7 33.1 19.0 44 9.1 E 15 19 8 10 - - 0.0
16/05:30pm 33.4 34.7 19.4 43 9.3 E 11 13 6 7 - - 0.0
16/05:20pm 33.8 34.3 17.4 37 10.6 E 11 17 6 9 - - 0.0
16/05:10pm 34.1 35.5 17.8 38 10.6 E 7 11 4 6 - - 0.0
16/05:00pm 34.0 35.0 17.8 38 10.6 ESE 9 11 5 6 - - 0.0
16/04:50pm 34.0 35.3 18.5 40 10.2 E 9 15 5 8 - - 0.0
16/04:40pm 33.9 35.1 17.4 37 10.7 ESE 7 9 4 5 - - 0.0
16/04:30pm 34.2 35.4 18.3 39 10.4 E 9 11 5 6 - - 0.0
16/04:20pm 34.6 35.7 17.1 35 11.3 NNE 7 9 4 5 - - 0.0
16/04:10pm 34.4 34.5 15.6 32 11.9 ENE 9 15 5 8 - - 0.0
16/04:00pm 34.7 35.7 16.3 33 11.8 NE 6 9 3 5 - - 0.0
16/03:50pm 35.1 36.8 17.2 34 11.6 N 4 6 2 3 - - 0.0
16/03:40pm 34.7 36.0 17.1 35 11.4 W 6 7 3 4 - - 0.0
16/03:30pm 34.7 36.6 18.5 38 10.7 N 6 9 3 5 - - 0.0
16/03:20pm 34.5 35.8 17.0 35 11.3 N 6 9 3 5 - - 0.0
16/03:10pm 34.6 36.5 18.5 38 10.6 NW 6 9 3 5 - - 0.0
16/03:00pm 34.3 35.7 18.6 39 10.4 WNW 9 11 5 6 - - 0.0
16/02:50pm 34.4 36.3 19.7 42 9.8 NNW 9 13 5 7 - - 0.0
16/02:40pm 34.2 34.8 16.7 35 11.3 N 9 13 5 7 - - 0.0
16/02:30pm 33.4 33.4 16.3 36 10.9 N 11 13 6 7 - - 0.0
16/02:20pm 33.0 33.5 16.6 37 10.5 NNE 9 13 5 7 - - 0.0
16/02:00pm 32.0 33.0 17.8 42 9.2 NNE 9 13 5 7 - - 0.0
16/01:50pm 32.1 32.8 18.0 43 9.2 NNE 11 11 6 6 - - 0.0
16/01:40pm 32.4 33.9 19.0 45 8.8 NNE 9 11 5 6 - - 0.0
16/01:30pm 32.6 34.5 18.9 44 9.0 N 7 11 4 6 - - 0.0
16/01:20pm 33.0 35.0 19.1 43 9.2 NNE 7 11 4 6 - - 0.0
16/01:10pm 34.0 35.4 18.7 40 10.1 N 9 15 5 8 - - 0.0
16/01:00pm 34.1 35.2 18.8 40 10.1 N 11 17 6 9 - - 0.0
16/12:50pm 34.1 36.6 20.2 44 9.4 N 7 11 4 6 - - 0.0
16/12:40pm 34.2 35.7 18.8 40 10.2 N 9 11 5 6 - - 0.0
16/12:30pm 33.9 36.2 19.9 43 9.4 N 7 11 4 6 - - 0.0
16/12:20pm 33.4 35.5 19.4 43 9.3 NNE 7 13 4 7 - - 0.0
16/12:10pm 33.5 35.3 19.6 44 9.3 NNE 9 15 5 8 - - 0.0
16/12:00pm 33.1 34.7 19.2 43 9.2 NNE 9 15 5 8 - - 0.0
16/11:50am 33.1 35.3 19.6 45 9.0 NE 7 13 4 7 - - 0.0
16/11:40am 33.2 35.4 19.5 44 9.1 NNE 7 9 4 5 - - 0.0
16/11:30am 32.8 35.2 19.6 45 8.8 NE 6 11 3 6 - - 0.0
16/11:20am 32.4 34.1 19.4 46 8.6 NE 9 11 5 6 - - 0.0
16/11:10am 32.1 33.9 20.4 50 7.9 E 11 15 6 8 - - 0.0
16/11:00am 32.1 34.3 20.4 50 7.9 ENE 9 13 5 7 - - 0.0
16/10:50am 32.0 34.3 20.7 51 7.6 ENE 9 11 5 6 - - 0.0
16/10:40am 31.9 34.4 19.8 48 8.1 NE 6 9 3 5 - - 0.0
16/10:30am 31.5 34.3 20.8 53 7.2 NE 7 9 4 5 - - 0.0
16/10:20am 31.4 34.0 20.5 52 7.3 NE 7 11 4 6 - - 0.0
16/10:10am 31.3 33.9 20.5 52 7.3 NE 7 11 4 6 - - 0.0
16/10:00am 31.2 34.0 20.4 52 7.2 NNE 6 9 3 5 - - 0.0
16/09:50am 30.9 33.4 20.3 53 7.1 NNE 7 11 4 6 - - 0.0
16/09:40am 30.3 33.4 21.0 57 6.3 NNE 6 9 3 5 - - 0.0
16/09:30am 29.8 32.5 20.6 57 6.2 NNE 7 11 4 6 - - 0.0
16/09:20am 29.4 32.0 20.4 58 6.0 NE 7 11 4 6 - - 0.0
16/09:10am 29.1 31.3 20.5 59 5.7 NE 9 13 5 7 - - 0.0
16/09:00am 28.8 31.1 20.7 61 5.4 NE 9 15 5 8 - - 0.0
16/08:50am 28.9 31.6 20.6 61 5.5 NNE 7 9 4 5 - - 0.0
16/08:40am 28.5 30.7 20.4 61 5.4 NE 9 13 5 7 - - 0.0
16/08:30am 27.9 30.3 20.9 65 4.7 ENE 9 11 5 6 - - 0.0
16/08:20am 27.7 30.1 20.9 66 4.5 NE 9 11 5 6 - - 0.0
16/08:10am 27.5 30.4 21.1 68 4.3 NE 7 9 4 5 - - 0.0
16/08:00am 27.4 30.1 21.4 70 4.0 NE 9 11 5 6 - - 0.0
16/07:50am 27.1 30.1 21.2 70 4.0 NE 7 9 4 5 - - 0.0
16/07:40am 26.8 29.9 21.5 72 3.6 NE 7 9 4 5 - - 0.0
16/07:30am 26.5 29.5 21.3 73 3.5 NNE 7 9 4 5 - - 0.0
16/07:20am 26.2 29.6 21.6 76 3.1 NE 6 7 3 4 - - 0.0
16/07:10am 25.7 29.0 21.5 77 2.8 NE 6 6 3 3 - - 0.0
16/07:00am 25.3 29.1 21.6 80 2.5 ENE 4 7 2 4 - - 0.0
16/06:50am 25.0 29.1 21.5 81 2.3 NNE 2 2 1 1 - - 0.0
16/06:40am 24.6 28.7 21.5 83 2.1 N 2 4 1 2 - - 0.0
16/06:30am 24.2 27.9 21.4 84 1.9 N 4 4 2 2 - - 0.0
16/06:20am 24.0 28.4 21.3 85 1.8 CALM 0 2 0 1 - - 0.0
16/06:10am 23.7 27.9 21.0 85 1.8 CALM 0 0 0 0 - - 0.0
16/06:00am 23.5 27.7 20.9 85 1.7 CALM 0 2 0 1 - - 0.0
16/05:50am 23.4 27.2 20.9 86 1.7 NE 2 4 1 2 - - 0.0
16/05:40am 23.4 27.1 20.8 85 1.7 ENE 2 2 1 1 - - 0.0
16/05:30am 23.4 27.1 20.8 85 1.7 NE 2 4 1 2 - - 0.0
16/05:20am 23.4 27.1 20.7 85 1.8 NE 2 4 1 2 - - 0.0
16/05:10am 23.5 27.2 20.8 85 1.8 NE 2 4 1 2 - - 0.0
16/05:00am 23.4 26.7 20.7 85 1.8 NE 4 6 2 3 - - 0.0
16/04:50am 23.2 26.1 20.6 85 1.7 ENE 6 6 3 3 - - 0.0
16/04:40am 23.3 26.6 20.7 85 1.7 NE 4 4 2 2 - - 0.0
16/04:30am 23.5 26.8 20.7 84 1.8 ENE 4 6 2 3 - - 0.0
16/04:20am 23.8 27.5 20.7 83 2.0 NE 2 4 1 2 - - 0.0
16/04:10am 23.8 27.9 20.8 83 2.0 CALM 0 2 0 1 - - 0.0
16/04:00am 23.8 27.4 20.6 82 2.1 NE 2 4 1 2 - - 0.0
16/03:50am 23.8 27.5 20.7 83 2.0 NE 2 4 1 2 - - 0.0
16/03:40am 23.9 27.6 20.7 82 2.1 ENE 2 4 1 2 - - 0.0
16/03:30am 24.0 27.6 20.6 81 2.2 NE 2 4 1 2 - - 0.0
16/03:20am 24.1 27.8 20.7 81 2.2 NE 2 4 1 2 - - 0.0
16/03:10am 24.1 27.4 20.7 81 2.2 NE 4 4 2 2 - - 0.0
16/03:00am 24.0 27.2 20.6 81 2.2 ENE 4 4 2 2 - - 0.0
16/02:50am 24.0 26.9 20.6 81 2.2 ENE 6 7 3 4 - - 0.0
16/02:40am 23.9 26.8 20.7 82 2.1 E 6 7 3 4 - - 0.0
16/02:30am 24.0 26.9 20.6 81 2.2 E 6 7 3 4 - - 0.0
16/02:20am 24.1 26.9 20.5 80 2.4 E 6 7 3 4 - - 0.0
16/02:10am 24.2 27.0 20.5 80 2.4 E 6 7 3 4 - - 0.0
16/02:00am 24.2 27.4 20.4 79 2.5 NNE 4 6 2 3 - - 0.0
16/01:50am 24.2 27.1 20.6 80 2.4 NNE 6 7 3 4 - - 0.0

Other formats

Comma delimited format used in spreadsheet applications
http://www.bom.gov.au/fwo/IDQ60801/IDQ60801.99122.axf

JavaScript Object Notation format (JSON) in row-major order
http://www.bom.gov.au/fwo/IDQ60801/IDQ60801.99122.json

Data quality

Most of these data are generated automatically and are frequently updated. Quality checks on data are not normally performed. It is possible for incorrect values to appear. Refer to information at About Latest Weather Observations and please check the disclaimer before using these data.